»·PEaware :: N7375Q KSEA-KPDX

N7375Q :: KSEA-KPDX

FLIGHT INFORMATION

Flight Status: Arrived
Operator: Privately registered:
United States
More flights under this callsign
Pilot: Ion I. (24133)
Aircraft: SOCATA TBM-900
(TBM9)
More flights by this aircraft type
Origin: KSEA Seattle-Tacoma Intl
United States
Destination: KPDX Portland Intl
United States
More flights between these airports :: More routes between these airports
Route: +SEA7 BUWZO KRATR2
File this flight plan on PilotEdge
Remarks:
Altitude:
(Current/Filed)
23,000ft
Speed:
(Current/Filed)
300kts
Departed: 21-Aug-20 08:22 PM
Arrived: 21-Aug-20 09:10 PM
Distance/Time
Traveled:
112nm/0:48
Distance/Time
To Go:
Arrived

Flight Plot

Page will automatically refresh every two minutes.

Flight plan parsing failed; only flown route is shown


Map Options




Map Legend


Flown Route
Filed Route
Departure Airport
Arrival Airport
Navaid (VOR, NDB)
Fix

Horizontal Profiles

Position Reports

Time Latitude Longitude Heading Altitude Ground
Speed
21-Aug-20 20:03 47.439014 -122.315046 55 350ft 0kts
21-Aug-20 20:04 47.439014 -122.315046 55 350ft 0kts
21-Aug-20 20:05 47.439014 -122.315046 55 350ft 0kts
21-Aug-20 20:06 47.439014 -122.315046 55 350ft 0kts
21-Aug-20 20:07 47.439014 -122.315046 55 350ft 0kts
21-Aug-20 20:08 47.439014 -122.315046 55 350ft 0kts
21-Aug-20 20:09 47.439014 -122.315046 55 350ft 0kts
21-Aug-20 20:10 47.439014 -122.315046 55 350ft 0kts
21-Aug-20 20:11 47.439014 -122.315046 55 350ft 0kts
21-Aug-20 20:12 47.439014 -122.315046 55 350ft 0kts
21-Aug-20 20:13 47.439014 -122.315046 55 350ft 0kts
21-Aug-20 20:14 47.439273 -122.314019 67 353ft 8kts
21-Aug-20 20:15 47.442755 -122.313594 1 365ft 17kts
21-Aug-20 20:16 47.447555 -122.313553 0 388ft 14kts
21-Aug-20 20:17 47.452014 -122.313503 1 401ft 19kts
21-Aug-20 20:18 47.458665 -122.313450 0 398ft 23kts
21-Aug-20 20:19 47.463674 -122.314372 268 362ft 12kts
21-Aug-20 20:20 47.463443 -122.317851 181 326ft 4kts
21-Aug-20 20:21 47.441033 -122.317087 173 1473ft 110kts
21-Aug-20 20:22 47.408842 -122.313612 176 3563ft 123kts
21-Aug-20 20:23 47.371582 -122.309954 179 5400ft 156kts
21-Aug-20 20:24 47.325610 -122.305506 182 6983ft 172kts
21-Aug-20 20:25 47.276810 -122.305599 185 8481ft 177kts
21-Aug-20 20:26 47.226981 -122.306159 186 9998ft 183kts
21-Aug-20 20:27 47.175434 -122.306786 187 11492ft 187kts
21-Aug-20 20:28 47.123306 -122.307439 188 12982ft 187kts
21-Aug-20 20:29 47.072640 -122.308043 190 14748ft 176kts
21-Aug-20 20:30 47.025579 -122.308624 192 16672ft 163kts
21-Aug-20 20:31 46.981331 -122.309197 194 18608ft 157kts
21-Aug-20 20:32 46.938048 -122.309619 194 20565ft 159kts
21-Aug-20 20:33 46.895235 -122.309621 195 22449ft 160kts
21-Aug-20 20:34 46.845474 -122.309792 192 23043ft 207kts
21-Aug-20 20:35 46.783281 -122.309646 191 23040ft 233kts
21-Aug-20 20:36 46.717306 -122.309599 190 23054ft 239kts
21-Aug-20 20:37 46.649968 -122.309625 190 22563ft 251kts
21-Aug-20 20:38 46.580076 -122.309591 190 20538ft 247kts
21-Aug-20 20:39 46.512015 -122.309661 190 18515ft 245kts
21-Aug-20 20:40 46.443908 -122.309649 189 16489ft 247kts
21-Aug-20 20:41 46.374541 -122.309652 187 14455ft 251kts
21-Aug-20 20:42 46.305162 -122.309636 186 13043ft 251kts
21-Aug-20 20:44 46.236517 -122.320908 205 11800ft 249kts
21-Aug-20 20:45 46.171816 -122.357159 204 10581ft 252kts
21-Aug-20 20:46 46.106525 -122.393488 204 10000ft 242kts
21-Aug-20 20:47 46.043253 -122.427940 204 9287ft 243kts
21-Aug-20 20:48 45.981022 -122.461463 204 8050ft 237kts
21-Aug-20 20:49 45.921647 -122.500128 225 6991ft 225kts
21-Aug-20 20:50 45.875473 -122.558571 223 6285ft 217kts
21-Aug-20 20:51 45.829508 -122.616622 223 5575ft 221kts
21-Aug-20 20:52 45.782910 -122.675318 222 5037ft 225kts
21-Aug-20 20:53 45.749017 -122.744373 273 4976ft 221kts
21-Aug-20 20:54 45.772951 -122.826773 290 5006ft 223kts
21-Aug-20 20:55 45.797408 -122.909109 290 4951ft 224kts
21-Aug-20 20:56 45.821806 -122.991149 290 4956ft 223kts
21-Aug-20 20:57 45.834666 -123.074391 233 4833ft 225kts
21-Aug-20 20:58 45.778360 -123.055113 143 3996ft 228kts
21-Aug-20 20:58 45.751979 -122.997136 117 3986ft 200kts
21-Aug-20 21:00 45.719575 -122.914745 121 3984ft 198kts
21-Aug-20 21:01 45.698504 -122.861061 122 3950ft 115kts
21-Aug-20 21:02 45.682133 -122.819437 121 3572ft 113kts
21-Aug-20 21:03 45.667804 -122.782729 121 2913ft 100kts
21-Aug-20 21:03 45.656332 -122.753400 120 2500ft 103kts
21-Aug-20 21:05 45.639957 -122.711489 119 1849ft 102kts
21-Aug-20 21:05 45.628566 -122.682346 118 1397ft 98kts
21-Aug-20 21:06 45.615706 -122.649858 117 867ft 89kts
21-Aug-20 21:08 45.601444 -122.612856 115 311ft 90kts
21-Aug-20 21:08 45.591529 -122.587251 118 20ft 70kts
21-Aug-20 21:09 45.587995 -122.582807 212 19ft 6kts
21-Aug-20 21:10 45.586287 -122.579318 141 19ft 8kts
21-Aug-20 21:11 45.585772 -122.580639 20 19ft 0kts
21-Aug-20 21:12 45.585772 -122.580639 20 19ft 0kts
21-Aug-20 21:13 45.585772 -122.580639 20 19ft 0kts
21-Aug-20 21:14 45.585772 -122.580639 20 19ft 0kts

Navigation Log

Ident Type
Flight plan parsing failed, navigation log unavailable